Time,TemperatureF,DewpointF,PressureIn,WindDirection,WindDirectionDegrees,WindSpeedMPH,WindSpeedGustMPH,Humidity,HourlyPrecipIn,Conditions,Clouds,dailyrainin,SoftwareType,DateUTC
2013-08-02 00:01:00,72.3,71.1,29.85,SSW,204,0.0,0.0,96,0.00,,,0.35,VWS V14.01,2013-08-02 04:01:00,
2013-08-02 00:06:00,72.1,70.9,29.85,SSW,204,0.0,0.0,96,0.00,,,0.00,VWS V14.01,2013-08-02 04:06:00,
2013-08-02 00:11:00,72.0,70.8,29.85,SSW,204,0.0,0.0,96,0.00,,,0.00,VWS V14.01,2013-08-02 04:11:00,
2013-08-02 00:16:00,71.9,70.7,29.85,SSW,204,0.0,0.0,96,0.00,,,0.00,VWS V14.01,2013-08-02 04:16:00,
2013-08-02 00:21:00,71.8,70.6,29.85,SSW,204,0.0,0.0,96,0.00,,,0.00,VWS V14.01,2013-08-02 04:21:00,
2013-08-02 00:26:00,71.8,70.6,29.85,SSW,204,0.0,0.0,96,0.00,,,0.00,VWS V14.01,2013-08-02 04:26:00,
2013-08-02 00:31:00,71.7,70.5,29.85,SSW,204,0.0,0.0,96,0.00,,,0.00,VWS V14.01,2013-08-02 04:31:00,
2013-08-02 00:36:00,71.6,70.7,29.85,SSW,204,0.0,0.0,97,0.00,,,0.00,VWS V14.01,2013-08-02 04:36:00,
2013-08-02 00:41:00,71.6,70.7,29.85,SSW,204,0.0,0.0,97,0.00,,,0.00,VWS V14.01,2013-08-02 04:41:00,
2013-08-02 00:46:00,71.6,70.7,29.85,SSW,204,0.0,0.0,97,0.00,,,0.00,VWS V14.01,2013-08-02 04:46:00,
2013-08-02 00:51:00,71.6,70.7,29.85,SSW,204,0.0,0.0,97,0.00,,,0.00,VWS V14.01,2013-08-02 04:51:00,
2013-08-02 00:56:00,71.7,71.1,29.86,SSW,204,0.0,0.0,98,0.00,,,0.00,VWS V14.01,2013-08-02 04:56:00,
2013-08-02 01:01:00,71.8,71.2,29.86,SSW,204,0.0,0.0,98,0.00,,,0.00,VWS V14.01,2013-08-02 05:01:00,
2013-08-02 01:06:00,71.8,71.2,29.86,SSW,204,0.0,0.0,98,0.00,,,0.00,VWS V14.01,2013-08-02 05:06:00,
2013-08-02 01:11:00,71.7,71.1,29.85,SSW,204,0.0,0.0,98,0.00,,,0.00,VWS V14.01,2013-08-02 05:11:00,
2013-08-02 01:16:00,71.7,71.1,29.85,SSW,204,0.0,0.0,98,0.00,,,0.00,VWS V14.01,2013-08-02 05:16:00,
2013-08-02 01:21:00,71.6,71.0,29.85,SSW,204,0.0,0.0,98,0.00,,,0.00,VWS V14.01,2013-08-02 05:21:00,
2013-08-02 01:26:00,71.6,71.0,29.85,SSW,204,0.0,0.0,98,0.00,,,0.00,VWS V14.01,2013-08-02 05:26:00,
2013-08-02 01:31:00,71.5,70.9,29.85,SSW,204,0.0,0.0,98,0.00,,,0.00,VWS V14.01,2013-08-02 05:31:00,
2013-08-02 01:36:00,71.5,70.9,29.85,SSW,204,0.0,0.0,98,0.00,,,0.00,VWS V14.01,2013-08-02 05:36:00,
2013-08-02 01:41:00,71.4,70.8,29.85,SSW,204,0.0,0.0,98,0.00,,,0.00,VWS V14.01,2013-08-02 05:41:00,
2013-08-02 01:46:00,71.4,70.8,29.85,SSW,204,0.0,0.0,98,0.00,,,0.00,VWS V14.01,2013-08-02 05:46:00,
2013-08-02 01:51:00,71.5,70.9,29.84,SSW,204,0.0,0.0,98,0.00,,,0.00,VWS V14.01,2013-08-02 05:51:00,
2013-08-02 01:56:00,71.4,70.8,29.84,SSW,204,0.0,0.0,98,0.00,,,0.00,VWS V14.01,2013-08-02 05:56:00,
2013-08-02 02:01:00,71.4,70.8,29.84,SSW,204,0.0,0.0,98,0.00,,,0.00,VWS V14.01,2013-08-02 06:01:00,
2013-08-02 02:06:00,71.4,70.8,29.85,SSW,204,0.0,0.0,98,0.00,,,0.00,VWS V14.01,2013-08-02 06:06:00,
2013-08-02 02:11:00,71.3,70.7,29.84,SSW,204,0.0,0.0,98,0.00,,,0.00,VWS V14.01,2013-08-02 06:11:00,
2013-08-02 02:16:00,71.3,71.0,29.84,SSW,204,0.0,0.0,99,0.00,,,0.00,VWS V14.01,2013-08-02 06:16:00,
2013-08-02 02:21:00,71.3,71.0,29.85,SSW,204,0.0,0.0,99,0.00,,,0.00,VWS V14.01,2013-08-02 06:21:00,
2013-08-02 02:26:00,71.2,70.6,29.84,SSW,204,0.0,0.0,98,0.00,,,0.00,VWS V14.01,2013-08-02 06:26:00,
2013-08-02 02:31:00,71.1,70.5,29.84,SSW,204,0.0,0.0,98,0.00,,,0.00,VWS V14.01,2013-08-02 06:31:00,
2013-08-02 02:36:00,71.1,70.5,29.84,SSW,204,0.0,0.0,98,0.00,,,0.00,VWS V14.01,2013-08-02 06:36:00,
2013-08-02 02:41:00,71.0,70.4,29.84,SSW,204,0.0,0.0,98,0.00,,,0.00,VWS V14.01,2013-08-02 06:41:00,
2013-08-02 02:46:00,70.9,70.3,29.84,SSW,204,0.0,0.0,98,0.00,,,0.00,VWS V14.01,2013-08-02 06:46:00,
2013-08-02 02:51:00,70.8,70.2,29.84,SSW,204,0.0,0.0,98,0.00,,,0.00,VWS V14.01,2013-08-02 06:51:00,
2013-08-02 02:56:00,70.8,70.2,29.84,SSW,204,0.0,0.0,98,0.00,,,0.00,VWS V14.01,2013-08-02 06:56:00,
2013-08-02 03:01:00,70.7,70.1,29.84,SSW,204,0.0,0.0,98,0.00,,,0.00,VWS V14.01,2013-08-02 07:01:00,
2013-08-02 03:06:00,70.6,70.0,29.84,SSW,204,0.0,0.0,98,0.00,,,0.00,VWS V14.01,2013-08-02 07:06:00,
2013-08-02 03:11:00,70.5,69.9,29.84,SSW,204,0.0,0.0,98,0.00,,,0.00,VWS V14.01,2013-08-02 07:11:00,
2013-08-02 03:16:00,70.4,69.8,29.85,SSW,204,0.0,0.0,98,0.00,,,0.00,VWS V14.01,2013-08-02 07:16:00,
2013-08-02 03:21:00,70.4,69.8,29.84,SSW,204,0.0,0.0,98,0.00,,,0.00,VWS V14.01,2013-08-02 07:21:00,
2013-08-02 03:27:00,70.3,69.7,29.84,SSW,204,0.0,0.0,98,0.00,,,0.00,VWS V14.01,2013-08-02 07:27:00,
2013-08-02 03:32:00,70.2,69.6,29.84,SSW,204,0.0,0.0,98,0.00,,,0.00,VWS V14.01,2013-08-02 07:32:00,
2013-08-02 03:37:00,70.2,69.6,29.85,SSW,204,0.0,0.0,98,0.00,,,0.00,VWS V14.01,2013-08-02 07:37:00,
2013-08-02 03:42:00,70.1,69.5,29.85,SSW,204,0.0,0.0,98,0.00,,,0.00,VWS V14.01,2013-08-02 07:42:00,
2013-08-02 03:47:00,69.9,69.3,29.85,SSW,204,0.0,0.0,98,0.00,,,0.00,VWS V14.01,2013-08-02 07:47:00,
2013-08-02 03:52:00,69.8,69.2,29.85,SSW,204,0.0,0.0,98,0.00,,,0.00,VWS V14.01,2013-08-02 07:52:00,
2013-08-02 03:57:00,69.7,69.1,29.85,SSW,204,0.0,0.0,98,0.00,,,0.00,VWS V14.01,2013-08-02 07:57:00,
2013-08-02 04:02:00,69.6,68.7,29.85,SSW,204,0.0,0.0,97,0.00,,,0.00,VWS V14.01,2013-08-02 08:02:00,
2013-08-02 04:07:00,69.4,68.5,29.85,SSW,204,0.0,0.0,97,0.00,,,0.00,VWS V14.01,2013-08-02 08:07:00,
2013-08-02 04:12:00,69.3,68.7,29.85,SSW,204,0.0,0.0,98,0.00,,,0.00,VWS V14.01,2013-08-02 08:12:00,
2013-08-02 04:17:00,69.2,68.6,29.86,SSW,204,0.0,0.0,98,0.00,,,0.00,VWS V14.01,2013-08-02 08:17:00,
2013-08-02 04:22:00,69.1,68.5,29.86,SSW,204,0.0,0.0,98,0.00,,,0.00,VWS V14.01,2013-08-02 08:22:00,
2013-08-02 04:27:00,69.1,68.5,29.86,SSW,204,0.0,0.0,98,0.00,,,0.00,VWS V14.01,2013-08-02 08:27:00,
2013-08-02 04:32:00,69.0,68.4,29.86,SSW,204,0.0,0.0,98,0.00,,,0.00,VWS V14.01,2013-08-02 08:32:00,
2013-08-02 04:37:00,68.9,68.3,29.86,SSW,204,0.0,0.0,98,0.00,,,0.00,VWS V14.01,2013-08-02 08:37:00,
2013-08-02 04:42:00,68.8,67.9,29.86,SSW,204,0.0,0.0,97,0.00,,,0.00,VWS V14.01,2013-08-02 08:42:00,
2013-08-02 04:47:00,68.7,68.1,29.87,SSW,204,0.0,0.0,98,0.00,,,0.00,VWS V14.01,2013-08-02 08:47:00,
2013-08-02 04:52:00,68.7,68.1,29.87,SSW,204,0.0,0.0,98,0.00,,,0.00,VWS V14.01,2013-08-02 08:52:00,
2013-08-02 04:57:00,68.6,68.0,29.87,SSW,204,0.0,0.0,98,0.00,,,0.00,VWS V14.01,2013-08-02 08:57:00,
2013-08-02 05:02:00,68.5,67.9,29.87,SSW,204,0.0,0.0,98,0.00,,,0.00,VWS V14.01,2013-08-02 09:02:00,
2013-08-02 05:07:00,68.4,67.5,29.88,SSW,204,0.0,0.0,97,0.00,,,0.00,VWS V14.01,2013-08-02 09:07:00,
2013-08-02 05:12:00,68.3,67.4,29.88,SSW,204,0.0,0.0,97,0.00,,,0.00,VWS V14.01,2013-08-02 09:12:00,
2013-08-02 05:17:00,68.2,67.3,29.88,SSW,204,0.0,0.0,97,0.00,,,0.00,VWS V14.01,2013-08-02 09:17:00,
2013-08-02 05:22:00,68.1,67.2,29.88,SSW,204,0.0,0.0,97,0.00,,,0.00,VWS V14.01,2013-08-02 09:22:00,
2013-08-02 05:27:00,68.0,67.1,29.88,SSW,204,0.0,0.0,97,0.00,,,0.00,VWS V14.01,2013-08-02 09:27:00,
2013-08-02 05:32:00,68.0,67.1,29.88,SSW,204,0.0,0.0,97,0.00,,,0.00,VWS V14.01,2013-08-02 09:32:00,
2013-08-02 05:37:00,67.9,67.0,29.89,SSW,204,0.0,0.0,97,0.00,,,0.00,VWS V14.01,2013-08-02 09:37:00,
2013-08-02 05:42:00,67.9,67.0,29.88,SSW,204,0.0,0.0,97,0.00,,,0.00,VWS V14.01,2013-08-02 09:42:00,
2013-08-02 05:47:00,67.7,66.8,29.89,SSW,204,0.0,0.0,97,0.00,,,0.00,VWS V14.01,2013-08-02 09:47:00,
2013-08-02 05:52:00,67.7,66.8,29.89,SSW,204,0.0,0.0,97,0.00,,,0.00,VWS V14.01,2013-08-02 09:52:00,
2013-08-02 05:57:00,67.6,66.7,29.89,SSW,204,0.0,0.0,97,0.00,,,0.00,VWS V14.01,2013-08-02 09:57:00,
2013-08-02 06:02:00,67.5,66.6,29.90,SSW,204,0.0,0.0,97,0.00,,,0.00,VWS V14.01,2013-08-02 10:02:00,
2013-08-02 06:07:00,67.5,66.6,29.90,SSW,204,0.0,0.0,97,0.00,,,0.00,VWS V14.01,2013-08-02 10:07:00,
2013-08-02 06:12:00,67.4,66.5,29.90,SSW,204,0.0,0.0,97,0.00,,,0.00,VWS V14.01,2013-08-02 10:12:00,
2013-08-02 06:17:00,67.4,66.5,29.90,SSW,204,0.0,0.0,97,0.00,,,0.00,VWS V14.01,2013-08-02 10:17:00,
2013-08-02 06:22:00,67.4,66.5,29.90,SSW,204,0.0,0.0,97,0.00,,,0.00,VWS V14.01,2013-08-02 10:22:00,
2013-08-02 06:27:00,67.3,66.4,29.90,SSW,204,0.0,0.0,97,0.00,,,0.00,VWS V14.01,2013-08-02 10:27:00,
2013-08-02 06:32:00,67.2,66.3,29.90,SSW,204,0.0,0.0,97,0.00,,,0.00,VWS V14.01,2013-08-02 10:32:00,
2013-08-02 06:37:00,67.2,66.3,29.90,SSW,204,0.0,0.0,97,0.00,,,0.00,VWS V14.01,2013-08-02 10:37:00,
2013-08-02 06:42:00,67.1,66.2,29.90,SSW,204,0.0,0.0,97,0.00,,,0.00,VWS V14.01,2013-08-02 10:42:00,
2013-08-02 06:47:00,67.1,66.2,29.90,SSW,204,0.0,0.0,97,0.00,,,0.00,VWS V14.01,2013-08-02 10:47:00,
2013-08-02 06:52:00,67.0,66.1,29.90,SSW,204,0.0,0.0,97,0.00,,,0.00,VWS V14.01,2013-08-02 10:52:00,
2013-08-02 06:57:00,67.0,66.4,29.91,SSW,204,0.0,0.0,98,0.00,,,0.00,VWS V14.01,2013-08-02 10:57:00,
2013-08-02 07:02:00,67.1,66.5,29.90,SSW,204,0.0,0.0,98,0.00,,,0.00,VWS V14.01,2013-08-02 11:02:00,
2013-08-02 07:07:00,67.1,66.5,29.91,SSW,204,0.0,0.0,98,0.00,,,0.00,VWS V14.01,2013-08-02 11:07:00,
2013-08-02 07:12:00,67.1,66.5,29.91,SSW,204,0.0,0.0,98,0.00,,,0.00,VWS V14.01,2013-08-02 11:12:00,
2013-08-02 07:17:00,67.2,66.6,29.91,SSW,204,0.0,0.0,98,0.00,,,0.00,VWS V14.01,2013-08-02 11:17:00,
2013-08-02 07:22:00,67.3,66.7,29.91,SSW,204,0.0,0.0,98,0.00,,,0.00,VWS V14.01,2013-08-02 11:22:00,
2013-08-02 07:27:00,67.4,66.8,29.91,SSW,204,0.0,0.0,98,0.00,,,0.00,VWS V14.01,2013-08-02 11:27:00,
2013-08-02 07:32:00,67.4,66.8,29.91,SSW,204,0.0,0.0,98,0.00,,,0.00,VWS V14.01,2013-08-02 11:32:00,
2013-08-02 07:37:00,67.6,66.7,29.91,SSW,204,0.0,0.0,97,0.00,,,0.00,VWS V14.01,2013-08-02 11:37:00,
2013-08-02 07:42:00,67.8,66.9,29.92,SSW,204,0.0,0.0,97,0.00,,,0.00,VWS V14.01,2013-08-02 11:42:00,
2013-08-02 07:47:00,67.9,67.0,29.92,SSW,204,0.0,0.0,97,0.00,,,0.00,VWS V14.01,2013-08-02 11:47:00,
2013-08-02 07:52:00,68.1,67.2,29.92,SSW,204,0.0,0.0,97,0.00,,,0.00,VWS V14.01,2013-08-02 11:52:00,
2013-08-02 07:57:00,68.3,67.4,29.92,SSW,204,0.0,0.0,97,0.00,,,0.00,VWS V14.01,2013-08-02 11:57:00,
2013-08-02 08:02:00,68.6,67.4,29.92,SSW,204,0.0,0.0,96,0.00,,,0.00,VWS V14.01,2013-08-02 12:02:00,
2013-08-02 08:07:00,68.8,67.6,29.92,SSW,204,0.0,0.0,96,0.00,,,0.00,VWS V14.01,2013-08-02 12:07:00,
2013-08-02 08:12:00,69.0,67.5,29.93,SSW,204,0.0,0.0,95,0.00,,,0.00,VWS V14.01,2013-08-02 12:12:00,
2013-08-02 08:17:00,69.3,67.5,29.93,SSW,204,0.0,0.0,94,0.00,,,0.00,VWS V14.01,2013-08-02 12:17:00,
2013-08-02 08:22:00,69.5,67.7,29.93,SSW,204,0.0,0.0,94,0.00,,,0.00,VWS V14.01,2013-08-02 12:22:00,
2013-08-02 08:27:00,69.8,68.0,29.93,SSW,204,0.0,0.0,94,0.00,,,0.00,VWS V14.01,2013-08-02 12:27:00,
2013-08-02 08:32:00,70.1,67.7,29.94,SSW,205,0.0,0.0,92,0.00,,,0.00,VWS V14.01,2013-08-02 12:32:00,
2013-08-02 08:37:00,70.5,68.1,29.93,SSW,205,0.0,0.0,92,0.00,,,0.00,VWS V14.01,2013-08-02 12:37:00,
2013-08-02 08:42:00,70.8,68.1,29.94,SSW,205,0.0,0.0,91,0.00,,,0.00,VWS V14.01,2013-08-02 12:42:00,
2013-08-02 08:47:00,71.2,68.1,29.94,SSW,205,0.0,0.0,90,0.00,,,0.00,VWS V14.01,2013-08-02 12:47:00,
2013-08-02 08:52:00,71.6,68.5,29.94,SSW,205,0.0,0.0,90,0.00,,,0.00,VWS V14.01,2013-08-02 12:52:00,
2013-08-02 08:57:00,71.9,68.8,29.94,SSW,205,0.0,0.0,90,0.00,,,0.00,VWS V14.01,2013-08-02 12:57:00,
2013-08-02 09:02:00,72.2,68.8,29.94,SSW,205,0.0,0.0,89,0.00,,,0.00,VWS V14.01,2013-08-02 13:02:00,
2013-08-02 09:07:00,72.5,68.8,29.94,SSW,205,0.0,0.0,88,0.00,,,0.00,VWS V14.01,2013-08-02 13:07:00,
2013-08-02 09:12:00,72.9,69.1,29.94,SSW,205,0.0,0.0,88,0.00,,,0.00,VWS V14.01,2013-08-02 13:12:00,
2013-08-02 09:17:00,73.3,68.9,29.94,SSW,205,0.0,0.0,86,0.00,,,0.00,VWS V14.01,2013-08-02 13:17:00,
2013-08-02 09:22:00,73.7,68.9,29.94,SSW,205,0.0,0.0,85,0.00,,,0.00,VWS V14.01,2013-08-02 13:22:00,
2013-08-02 09:27:00,74.3,69.5,29.94,SSW,205,0.0,0.0,85,0.00,,,0.00,VWS V14.01,2013-08-02 13:27:00,
2013-08-02 09:32:00,74.9,69.0,29.94,SSW,205,0.0,0.0,82,0.00,,,0.00,VWS V14.01,2013-08-02 13:32:00,
2013-08-02 09:37:00,75.5,68.9,29.94,SSW,205,0.0,0.0,80,0.00,,,0.00,VWS V14.01,2013-08-02 13:37:00,
2013-08-02 09:42:00,76.1,69.5,29.95,SSW,205,0.0,0.0,80,0.00,,,0.00,VWS V14.01,2013-08-02 13:42:00,
2013-08-02 09:47:00,76.6,69.6,29.95,SSW,205,0.0,0.0,79,0.00,,,0.00,VWS V14.01,2013-08-02 13:47:00,
2013-08-02 09:52:00,77.1,69.3,29.95,SSW,205,0.0,0.0,77,0.00,,,0.00,VWS V14.01,2013-08-02 13:52:00,
2013-08-02 09:57:00,77.6,69.1,29.95,SSW,204,0.0,0.0,75,0.00,,,0.00,VWS V14.01,2013-08-02 13:57:00,
2013-08-02 10:02:00,77.9,69.3,29.95,SSW,204,0.0,0.0,75,0.00,,,0.00,VWS V14.01,2013-08-02 14:02:00,
2013-08-02 10:07:00,78.2,68.4,29.95,SSW,204,0.0,0.0,72,0.00,,,0.00,VWS V14.01,2013-08-02 14:07:00,
2013-08-02 10:12:00,78.5,68.3,29.95,SE,138,0.0,1.0,71,0.00,,,0.00,VWS V14.01,2013-08-02 14:12:00,
2013-08-02 10:17:00,78.9,69.1,29.95,SE,138,0.0,0.0,72,0.00,,,0.00,VWS V14.01,2013-08-02 14:17:00,
2013-08-02 10:22:00,79.1,68.9,29.95,SE,138,0.0,0.0,71,0.00,,,0.00,VWS V14.01,2013-08-02 14:22:00,
2013-08-02 10:27:00,79.4,68.8,29.95,SE,138,0.0,1.0,70,0.00,,,0.00,VWS V14.01,2013-08-02 14:27:00,
2013-08-02 10:32:00,79.6,68.5,29.95,SE,138,0.0,0.0,69,0.00,,,0.00,VWS V14.01,2013-08-02 14:32:00,
2013-08-02 10:37:00,79.8,68.3,29.95,SE,138,0.0,0.0,68,0.00,,,0.00,VWS V14.01,2013-08-02 14:37:00,
2013-08-02 10:42:00,79.9,68.4,29.95,SE,138,0.0,0.0,68,0.00,,,0.00,VWS V14.01,2013-08-02 14:42:00,
2013-08-02 10:47:00,80.0,68.1,29.95,SE,138,0.0,0.0,67,0.00,,,0.00,VWS V14.01,2013-08-02 14:47:00,
2013-08-02 10:52:00,80.2,68.3,29.95,SE,138,0.0,0.0,67,0.00,,,0.00,VWS V14.01,2013-08-02 14:52:00,
2013-08-02 10:57:00,80.3,67.0,29.94,SE,138,0.0,0.0,64,0.00,,,0.00,VWS V14.01,2013-08-02 14:57:00,
2013-08-02 11:03:00,80.6,68.2,29.94,SE,138,0.0,0.0,66,0.00,,,0.00,VWS V14.01,2013-08-02 15:03:00,
2013-08-02 11:08:00,80.9,68.5,29.94,SE,138,0.0,0.0,66,0.00,,,0.00,VWS V14.01,2013-08-02 15:08:00,
2013-08-02 11:12:00,81.2,67.4,29.94,NNW,336,0.0,0.0,63,0.00,,,0.00,VWS V14.01,2013-08-02 15:12:00,
2013-08-02 11:18:00,81.4,67.6,29.94,North,360,0.0,0.0,63,0.00,,,0.00,VWS V14.01,2013-08-02 15:18:00,
2013-08-02 11:22:00,81.7,68.3,29.94,North,360,0.0,0.0,64,0.00,,,0.00,VWS V14.01,2013-08-02 15:22:00,
2013-08-02 11:28:00,82.0,68.2,29.94,North,360,0.0,1.0,63,0.00,,,0.00,VWS V14.01,2013-08-02 15:28:00,
2013-08-02 11:33:00,82.1,67.3,29.94,NE,38,0.0,0.0,61,0.00,,,0.00,VWS V14.01,2013-08-02 15:33:00,
2013-08-02 11:38:00,82.5,68.2,29.94,NE,38,0.0,0.0,62,0.00,,,0.00,VWS V14.01,2013-08-02 15:38:00,
2013-08-02 11:43:00,82.6,67.8,29.95,NE,38,0.0,0.0,61,0.00,,,0.00,VWS V14.01,2013-08-02 15:43:00,
2013-08-02 11:48:00,82.7,67.9,29.95,SE,130,0.0,0.0,61,0.00,,,0.00,VWS V14.01,2013-08-02 15:48:00,
2013-08-02 11:53:00,82.9,67.6,29.95,SE,130,0.0,1.0,60,0.00,,,0.00,VWS V14.01,2013-08-02 15:53:00,
2013-08-02 11:58:00,82.9,68.1,29.94,SE,130,0.0,0.0,61,0.00,,,0.00,VWS V14.01,2013-08-02 15:58:00,
2013-08-02 12:03:00,83.0,68.2,29.95,SE,130,0.0,1.0,61,0.00,,,0.00,VWS V14.01,2013-08-02 16:03:00,
2013-08-02 12:08:00,83.1,67.8,29.95,SE,130,0.0,1.0,60,0.00,,,0.00,VWS V14.01,2013-08-02 16:08:00,
2013-08-02 12:13:00,83.2,67.9,29.95,SE,130,0.0,0.0,60,0.00,,,0.00,VWS V14.01,2013-08-02 16:13:00,
2013-08-02 12:18:00,83.2,68.8,29.95,SE,130,0.0,0.0,62,0.00,,,0.00,VWS V14.01,2013-08-02 16:18:00,
2013-08-02 12:23:00,83.1,68.3,29.95,SE,130,0.0,0.0,61,0.00,,,0.00,VWS V14.01,2013-08-02 16:23:00,
2013-08-02 12:28:00,82.9,68.1,29.95,SE,130,0.0,1.0,61,0.00,,,0.00,VWS V14.01,2013-08-02 16:28:00,
2013-08-02 12:33:00,82.7,68.4,29.95,SE,130,0.0,0.0,62,0.00,,,0.00,VWS V14.01,2013-08-02 16:33:00,
2013-08-02 12:38:00,82.7,67.9,29.95,SE,131,0.0,0.0,61,0.00,,,0.00,VWS V14.01,2013-08-02 16:38:00,
2013-08-02 12:43:00,82.6,67.3,29.96,SE,131,0.0,0.0,60,0.00,,,0.00,VWS V14.01,2013-08-02 16:43:00,
2013-08-02 12:48:00,82.7,67.9,29.95,SE,131,0.0,0.0,61,0.00,,,0.00,VWS V14.01,2013-08-02 16:48:00,
2013-08-02 12:53:00,82.8,66.5,29.95,NNW,348,1.0,2.0,58,0.00,,,0.00,VWS V14.01,2013-08-02 16:53:00,
2013-08-02 12:58:00,82.9,67.6,29.95,North,350,0.0,0.0,60,0.00,,,0.00,VWS V14.01,2013-08-02 16:58:00,
2013-08-02 13:03:00,83.0,68.2,29.95,ESE,122,2.0,2.0,61,0.00,,,0.00,VWS V14.01,2013-08-02 17:03:00,
2013-08-02 13:08:00,83.0,67.7,29.95,NNE,17,0.0,1.0,60,0.00,,,0.00,VWS V14.01,2013-08-02 17:08:00,
2013-08-02 13:13:00,82.9,67.6,29.95,ENE,60,0.0,0.0,60,0.00,,,0.00,VWS V14.01,2013-08-02 17:13:00,
2013-08-02 13:18:00,82.9,68.1,29.95,East,97,0.0,0.0,61,0.00,,,0.00,VWS V14.01,2013-08-02 17:18:00,
2013-08-02 13:23:00,83.0,68.7,29.94,East,97,0.0,0.0,62,0.00,,,0.00,VWS V14.01,2013-08-02 17:23:00,
2013-08-02 13:28:00,83.1,68.7,29.94,East,97,0.0,0.0,62,0.00,,,0.00,VWS V14.01,2013-08-02 17:28:00,
2013-08-02 13:33:00,83.0,68.2,29.94,East,97,0.0,0.0,61,0.00,,,0.00,VWS V14.01,2013-08-02 17:33:00,
2013-08-02 13:38:00,82.7,68.4,29.94,East,97,0.0,0.0,62,0.00,,,0.00,VWS V14.01,2013-08-02 17:38:00,
2013-08-02 13:43:00,82.5,68.6,29.94,East,97,0.0,0.0,63,0.00,,,0.00,VWS V14.01,2013-08-02 17:43:00,
2013-08-02 13:48:00,82.4,68.6,29.93,East,97,0.0,0.0,63,0.00,,,0.00,VWS V14.01,2013-08-02 17:48:00,
2013-08-02 13:53:00,82.4,69.0,29.93,East,97,0.0,0.0,64,0.00,,,0.00,VWS V14.01,2013-08-02 17:53:00,
2013-08-02 13:58:00,82.7,68.4,29.93,ESE,111,0.0,0.0,62,0.00,,,0.00,VWS V14.01,2013-08-02 17:58:00,
2013-08-02 14:03:00,83.0,67.7,29.93,SE,138,2.0,2.0,60,0.00,,,0.00,VWS V14.01,2013-08-02 18:03:00,
2013-08-02 14:08:00,83.5,68.7,29.93,SE,138,0.0,0.0,61,0.00,,,0.00,VWS V14.01,2013-08-02 18:08:00,
2013-08-02 14:13:00,83.8,68.4,29.93,SE,138,1.0,1.0,60,0.00,,,0.00,VWS V14.01,2013-08-02 18:13:00,
2013-08-02 14:18:00,84.1,67.7,29.93,SSW,198,0.0,0.0,58,0.00,,,0.00,VWS V14.01,2013-08-02 18:18:00,
2013-08-02 14:23:00,84.4,69.5,29.93,NE,54,0.0,0.0,61,0.00,,,0.00,VWS V14.01,2013-08-02 18:23:00,
2013-08-02 14:28:00,84.3,68.4,29.93,SE,130,0.0,0.0,59,0.00,,,0.00,VWS V14.01,2013-08-02 18:28:00,
2013-08-02 14:33:00,84.3,68.4,29.93,SE,130,1.0,1.0,59,0.00,,,0.00,VWS V14.01,2013-08-02 18:33:00,
2013-08-02 14:38:00,84.3,67.9,29.93,SE,130,1.0,1.0,58,0.00,,,0.00,VWS V14.01,2013-08-02 18:38:00,
2013-08-02 14:43:00,84.3,67.4,29.93,SE,130,0.0,0.0,57,0.00,,,0.00,VWS V14.01,2013-08-02 18:43:00,
2013-08-02 14:48:00,84.4,67.5,29.93,SE,130,0.0,0.0,57,0.00,,,0.00,VWS V14.01,2013-08-02 18:48:00,
2013-08-02 14:53:00,84.5,67.1,29.92,SE,130,0.0,0.0,56,0.00,,,0.00,VWS V14.01,2013-08-02 18:53:00,
2013-08-02 14:58:00,84.6,67.7,29.92,ESE,113,0.0,0.0,57,0.00,,,0.00,VWS V14.01,2013-08-02 18:58:00,
2013-08-02 15:03:00,84.7,66.2,29.92,ESE,113,0.0,0.0,54,0.00,,,0.00,VWS V14.01,2013-08-02 19:03:00,
2013-08-02 15:08:00,84.7,67.8,29.92,SE,124,0.0,0.0,57,0.00,,,0.00,VWS V14.01,2013-08-02 19:08:00,
2013-08-02 15:13:00,84.8,67.4,29.92,SE,125,0.0,0.0,56,0.00,,,0.00,VWS V14.01,2013-08-02 19:13:00,
2013-08-02 15:18:00,84.6,67.2,29.93,SE,125,2.0,2.0,56,0.00,,,0.00,VWS V14.01,2013-08-02 19:18:00,
2013-08-02 15:23:00,84.3,68.4,29.92,SSW,211,0.0,0.0,59,0.00,,,0.00,VWS V14.01,2013-08-02 19:23:00,
2013-08-02 15:28:00,83.9,68.5,29.92,ENE,75,0.0,0.0,60,0.00,,,0.00,VWS V14.01,2013-08-02 19:28:00,
2013-08-02 15:33:00,83.6,69.2,29.92,ENE,75,0.0,0.0,62,0.00,,,0.00,VWS V14.01,2013-08-02 19:33:00,
2013-08-02 15:38:00,83.3,69.4,29.92,ENE,75,0.0,0.0,63,0.00,,,0.00,VWS V14.01,2013-08-02 19:38:00,
2013-08-02 15:43:00,83.1,69.7,29.92,ENE,75,0.0,1.0,64,0.00,,,0.00,VWS V14.01,2013-08-02 19:43:00,
2013-08-02 15:48:00,83.2,69.8,29.92,ENE,75,1.0,2.0,64,0.00,,,0.00,VWS V14.01,2013-08-02 19:48:00,
2013-08-02 15:53:00,83.4,70.4,29.92,ENE,76,0.0,0.0,65,0.00,,,0.00,VWS V14.01,2013-08-02 19:53:00,
2013-08-02 15:58:00,83.4,69.9,29.92,ENE,76,0.0,0.0,64,0.00,,,0.00,VWS V14.01,2013-08-02 19:58:00,
2013-08-02 16:03:00,83.5,69.6,29.92,ENE,76,0.0,0.0,63,0.00,,,0.00,VWS V14.01,2013-08-02 20:03:00,
2013-08-02 16:08:00,83.5,69.6,29.92,East,80,0.0,1.0,63,0.00,,,0.00,VWS V14.01,2013-08-02 20:08:00,
2013-08-02 16:13:00,83.7,70.2,29.92,SSW,207,1.0,2.0,64,0.00,,,0.00,VWS V14.01,2013-08-02 20:13:00,
2013-08-02 16:18:00,83.8,70.3,29.92,SSW,200,2.0,2.0,64,0.00,,,0.00,VWS V14.01,2013-08-02 20:18:00,
2013-08-02 16:23:00,84.1,70.2,29.92,SSW,200,0.0,1.0,63,0.00,,,0.00,VWS V14.01,2013-08-02 20:23:00,
2013-08-02 16:28:00,84.4,70.0,29.92,SSW,200,0.0,0.0,62,0.00,,,0.00,VWS V14.01,2013-08-02 20:28:00,
2013-08-02 16:33:00,84.6,70.6,29.92,SSW,198,0.0,0.0,63,0.00,,,0.00,VWS V14.01,2013-08-02 20:33:00,
2013-08-02 16:38:00,84.6,69.7,29.92,SSW,200,0.0,0.0,61,0.00,,,0.00,VWS V14.01,2013-08-02 20:38:00,
2013-08-02 16:43:00,84.6,69.7,29.92,SE,140,0.0,0.0,61,0.00,,,0.00,VWS V14.01,2013-08-02 20:43:00,
2013-08-02 16:48:00,84.5,68.6,29.91,SE,140,0.0,0.0,59,0.00,,,0.00,VWS V14.01,2013-08-02 20:48:00,
2013-08-02 16:53:00,84.5,69.1,29.91,SE,140,0.0,0.0,60,0.00,,,0.00,VWS V14.01,2013-08-02 20:53:00,
2013-08-02 16:58:00,84.4,70.4,29.91,SE,140,0.0,0.0,63,0.00,,,0.00,VWS V14.01,2013-08-02 20:58:00,
2013-08-02 17:03:00,84.1,71.1,29.91,SSW,207,0.0,0.0,65,0.00,,,0.00,VWS V14.01,2013-08-02 21:03:00,
2013-08-02 17:08:00,83.7,70.7,29.91,SSW,207,0.0,0.0,65,0.00,,,0.00,VWS V14.01,2013-08-02 21:08:00,
2013-08-02 17:13:00,83.4,71.3,29.91,SSW,207,0.0,0.0,67,0.00,,,0.00,VWS V14.01,2013-08-02 21:13:00,
2013-08-02 17:18:00,83.1,71.4,29.91,SSW,207,0.0,0.0,68,0.00,,,0.00,VWS V14.01,2013-08-02 21:18:00,
2013-08-02 17:23:00,82.8,69.8,29.91,SSW,207,0.0,0.0,65,0.00,,,0.00,VWS V14.01,2013-08-02 21:23:00,
2013-08-02 17:28:00,82.7,69.3,29.91,SE,130,0.0,0.0,64,0.00,,,0.00,VWS V14.01,2013-08-02 21:28:00,
2013-08-02 17:33:00,82.5,68.6,29.91,SE,130,0.0,0.0,63,0.00,,,0.00,VWS V14.01,2013-08-02 21:33:00,
2013-08-02 17:38:00,82.4,68.6,29.91,SE,130,0.0,0.0,63,0.00,,,0.00,VWS V14.01,2013-08-02 21:38:00,
2013-08-02 17:43:00,82.3,68.9,29.91,SE,130,0.0,0.0,64,0.00,,,0.00,VWS V14.01,2013-08-02 21:43:00,
2013-08-02 17:48:00,82.2,68.4,29.91,SE,130,0.0,0.0,63,0.00,,,0.00,VWS V14.01,2013-08-02 21:48:00,
2013-08-02 17:53:00,82.1,68.7,29.91,SE,130,0.0,0.0,64,0.00,,,0.00,VWS V14.01,2013-08-02 21:53:00,
2013-08-02 17:58:00,82.0,69.1,29.91,SE,130,0.0,0.0,65,0.00,,,0.00,VWS V14.01,2013-08-02 21:58:00,
2013-08-02 18:03:00,82.0,69.1,29.91,SE,130,0.0,0.0,65,0.00,,,0.00,VWS V14.01,2013-08-02 22:03:00,
2013-08-02 18:08:00,81.9,69.4,29.91,SE,130,0.0,0.0,66,0.00,,,0.00,VWS V14.01,2013-08-02 22:08:00,
2013-08-02 18:13:00,81.7,69.2,29.91,SE,130,0.0,0.0,66,0.00,,,0.00,VWS V14.01,2013-08-02 22:13:00,
2013-08-02 18:18:00,81.6,69.6,29.91,SE,130,0.0,0.0,67,0.00,,,0.00,VWS V14.01,2013-08-02 22:18:00,
2013-08-02 18:23:00,81.5,69.5,29.91,SE,130,0.0,0.0,67,0.00,,,0.00,VWS V14.01,2013-08-02 22:23:00,
2013-08-02 18:28:00,81.4,69.8,29.91,SE,130,0.0,0.0,68,0.00,,,0.00,VWS V14.01,2013-08-02 22:28:00,
2013-08-02 18:33:00,81.3,69.7,29.91,SE,130,0.0,0.0,68,0.00,,,0.00,VWS V14.01,2013-08-02 22:33:00,
2013-08-02 18:38:00,81.2,69.6,29.91,SE,130,0.0,0.0,68,0.00,,,0.00,VWS V14.01,2013-08-02 22:38:00,
2013-08-02 18:43:00,81.2,69.2,29.91,SE,130,0.0,0.0,67,0.00,,,0.00,VWS V14.01,2013-08-02 22:43:00,
2013-08-02 18:48:00,81.3,68.9,29.91,SE,130,0.0,0.0,66,0.00,,,0.00,VWS V14.01,2013-08-02 22:48:00,
2013-08-02 18:53:00,81.4,69.8,29.91,SE,130,0.0,0.0,68,0.00,,,0.00,VWS V14.01,2013-08-02 22:53:00,
2013-08-02 18:58:00,81.4,69.4,29.91,SE,130,0.0,0.0,67,0.00,,,0.00,VWS V14.01,2013-08-02 22:58:00,
2013-08-02 19:03:00,81.3,68.9,29.91,SE,130,0.0,0.0,66,0.00,,,0.00,VWS V14.01,2013-08-02 23:03:00,
2013-08-02 19:08:00,81.1,69.1,29.91,SE,130,0.0,0.0,67,0.00,,,0.00,VWS V14.01,2013-08-02 23:08:00,
2013-08-02 19:13:00,81.0,69.0,29.91,SE,130,0.0,0.0,67,0.00,,,0.00,VWS V14.01,2013-08-02 23:13:00,
2013-08-02 19:18:00,80.8,69.3,29.91,SE,130,0.0,0.0,68,0.00,,,0.00,VWS V14.01,2013-08-02 23:18:00,
2013-08-02 19:23:00,80.6,69.5,29.91,SE,130,0.0,0.0,69,0.00,,,0.00,VWS V14.01,2013-08-02 23:23:00,
2013-08-02 19:28:00,80.4,69.3,29.91,SE,130,0.0,0.0,69,0.00,,,0.00,VWS V14.01,2013-08-02 23:28:00,
2013-08-02 19:33:00,80.2,69.5,29.91,SE,130,0.0,0.0,70,0.00,,,0.00,VWS V14.01,2013-08-02 23:33:00,
2013-08-02 19:38:00,80.0,69.8,29.91,SE,130,0.0,0.0,71,0.00,,,0.00,VWS V14.01,2013-08-02 23:38:00,
2013-08-02 19:43:00,79.8,69.6,29.91,SE,130,0.0,0.0,71,0.00,,,0.00,VWS V14.01,2013-08-02 23:43:00,
2013-08-02 19:48:00,79.6,69.4,29.92,SE,130,0.0,0.0,71,0.00,,,0.00,VWS V14.01,2013-08-02 23:48:00,
2013-08-02 19:53:00,79.4,69.6,29.91,SE,130,0.0,0.0,72,0.00,,,0.00,VWS V14.01,2013-08-02 23:53:00,
2013-08-02 19:58:00,79.3,69.5,29.91,SE,130,0.0,0.0,72,0.00,,,0.00,VWS V14.01,2013-08-02 23:58:00,
2013-08-02 20:03:00,79.1,69.7,29.91,SE,130,0.0,0.0,73,0.00,,,0.00,VWS V14.01,2013-08-03 00:03:00,
2013-08-02 20:08:00,78.9,69.5,29.91,SE,130,0.0,0.0,73,0.00,,,0.00,VWS V14.01,2013-08-03 00:08:00,
2013-08-02 20:13:00,78.7,69.3,29.92,SE,130,0.0,0.0,73,0.00,,,0.00,VWS V14.01,2013-08-03 00:13:00,
2013-08-02 20:18:00,78.6,69.6,29.92,SE,130,0.0,0.0,74,0.00,,,0.00,VWS V14.01,2013-08-03 00:18:00,
2013-08-02 20:23:00,78.4,69.4,29.92,SE,130,0.0,0.0,74,0.00,,,0.00,VWS V14.01,2013-08-03 00:23:00,
2013-08-02 20:28:00,78.2,69.2,29.92,SE,130,0.0,0.0,74,0.00,,,0.00,VWS V14.01,2013-08-03 00:28:00,
2013-08-02 20:33:00,78.0,69.4,29.92,SE,130,0.0,0.0,75,0.00,,,0.00,VWS V14.01,2013-08-03 00:33:00,
2013-08-02 20:38:00,77.8,69.2,29.92,SE,130,0.0,0.0,75,0.00,,,0.00,VWS V14.01,2013-08-03 00:38:00,
2013-08-02 20:43:00,77.6,69.4,29.92,SE,130,0.0,0.0,76,0.00,,,0.00,VWS V14.01,2013-08-03 00:43:00,
2013-08-02 20:48:00,77.4,69.2,29.92,SE,130,0.0,0.0,76,0.00,,,0.00,VWS V14.01,2013-08-03 00:48:00,
2013-08-02 20:53:00,77.2,69.1,29.92,SE,130,0.0,0.0,76,0.00,,,0.00,VWS V14.01,2013-08-03 00:53:00,
2013-08-02 20:58:00,77.0,69.6,29.92,SE,130,0.0,0.0,78,0.00,,,0.00,VWS V14.01,2013-08-03 00:58:00,
2013-08-02 21:03:00,76.8,69.8,29.92,SE,130,0.0,0.0,79,0.00,,,0.00,VWS V14.01,2013-08-03 01:03:00,
2013-08-02 21:08:00,76.6,69.2,29.92,SE,130,0.0,0.0,78,0.00,,,0.00,VWS V14.01,2013-08-03 01:08:00,
2013-08-02 21:13:00,76.4,69.4,29.92,SE,130,0.0,0.0,79,0.00,,,0.00,VWS V14.01,2013-08-03 01:13:00,
2013-08-02 21:18:00,76.2,69.2,29.93,SE,130,0.0,0.0,79,0.00,,,0.00,VWS V14.01,2013-08-03 01:18:00,
2013-08-02 21:23:00,75.9,68.9,29.93,SE,130,0.0,0.0,79,0.00,,,0.00,VWS V14.01,2013-08-03 01:23:00,
2013-08-02 21:28:00,75.8,69.2,29.93,SE,130,0.0,0.0,80,0.00,,,0.00,VWS V14.01,2013-08-03 01:28:00,
2013-08-02 21:33:00,75.6,68.6,29.93,SE,130,0.0,0.0,79,0.00,,,0.00,VWS V14.01,2013-08-03 01:33:00,
2013-08-02 21:38:00,75.5,69.3,29.93,SE,130,0.0,0.0,81,0.00,,,0.00,VWS V14.01,2013-08-03 01:38:00,
2013-08-02 21:43:00,75.3,68.7,29.93,SE,130,0.0,0.0,80,0.00,,,0.00,VWS V14.01,2013-08-03 01:43:00,
2013-08-02 21:48:00,75.1,68.5,29.93,SE,130,0.0,0.0,80,0.00,,,0.00,VWS V14.01,2013-08-03 01:48:00,
2013-08-02 21:53:00,75.0,68.8,29.93,SE,130,0.0,0.0,81,0.00,,,0.00,VWS V14.01,2013-08-03 01:53:00,
2013-08-02 21:59:00,74.9,68.7,29.93,SE,130,0.0,0.0,81,0.00,,,0.00,VWS V14.01,2013-08-03 01:59:00,
2013-08-02 22:04:00,74.7,68.5,29.94,SE,130,0.0,0.0,81,0.00,,,0.00,VWS V14.01,2013-08-03 02:04:00,
2013-08-02 22:09:00,74.5,68.7,29.94,SE,130,0.0,0.0,82,0.00,,,0.00,VWS V14.01,2013-08-03 02:09:00,
2013-08-02 22:14:00,74.3,68.1,29.94,SE,130,0.0,0.0,81,0.00,,,0.00,VWS V14.01,2013-08-03 02:14:00,
2013-08-02 22:18:00,74.2,68.4,29.94,SE,130,0.0,0.0,82,0.00,,,0.00,VWS V14.01,2013-08-03 02:18:00,
2013-08-02 22:24:00,74.1,68.6,29.94,SE,130,0.0,0.0,83,0.00,,,0.00,VWS V14.01,2013-08-03 02:24:00,
2013-08-02 22:29:00,73.9,68.4,29.94,SE,130,0.0,0.0,83,0.00,,,0.00,VWS V14.01,2013-08-03 02:29:00,
2013-08-02 22:34:00,73.8,68.3,29.94,SE,130,0.0,0.0,83,0.00,,,0.00,VWS V14.01,2013-08-03 02:34:00,
2013-08-02 22:39:00,73.6,68.1,29.94,SE,130,0.0,0.0,83,0.00,,,0.00,VWS V14.01,2013-08-03 02:39:00,
2013-08-02 22:43:00,73.4,68.3,29.94,SE,131,0.0,0.0,84,0.00,,,0.00,VWS V14.01,2013-08-03 02:43:00,
2013-08-02 22:49:00,73.2,68.1,29.94,SE,131,0.0,0.0,84,0.00,,,0.00,VWS V14.01,2013-08-03 02:49:00,
2013-08-02 22:54:00,73.0,68.2,29.94,SE,130,0.0,0.0,85,0.00,,,0.00,VWS V14.01,2013-08-03 02:54:00,
2013-08-02 22:58:00,72.9,68.1,29.94,SE,130,0.0,0.0,85,0.00,,,0.00,VWS V14.01,2013-08-03 02:58:00,
2013-08-02 23:04:00,72.7,67.9,29.94,SE,130,0.0,0.0,85,0.00,,,0.00,VWS V14.01,2013-08-03 03:04:00,
2013-08-02 23:09:00,72.6,68.2,29.94,SE,130,0.0,0.0,86,0.00,,,0.00,VWS V14.01,2013-08-03 03:09:00,
2013-08-02 23:14:00,72.5,68.1,29.94,SE,130,0.0,0.0,86,0.00,,,0.00,VWS V14.01,2013-08-03 03:14:00,
2013-08-02 23:18:00,72.4,68.0,29.94,SE,130,0.0,0.0,86,0.00,,,0.00,VWS V14.01,2013-08-03 03:18:00,
2013-08-02 23:24:00,72.3,68.2,29.94,SE,130,0.0,0.0,87,0.00,,,0.00,VWS V14.01,2013-08-03 03:24:00,
2013-08-02 23:29:00,72.2,68.1,29.95,SE,130,0.0,0.0,87,0.00,,,0.00,VWS V14.01,2013-08-03 03:29:00,
2013-08-02 23:34:00,72.0,67.9,29.94,SE,130,0.0,0.0,87,0.00,,,0.00,VWS V14.01,2013-08-03 03:34:00,
2013-08-02 23:39:00,71.9,67.8,29.95,SE,130,0.0,0.0,87,0.00,,,0.00,VWS V14.01,2013-08-03 03:39:00,
2013-08-02 23:44:00,71.8,68.1,29.94,SE,130,0.0,0.0,88,0.00,,,0.00,VWS V14.01,2013-08-03 03:44:00,
2013-08-02 23:49:00,71.7,68.0,29.94,SE,130,0.0,0.0,88,0.00,,,0.00,VWS V14.01,2013-08-03 03:49:00,
2013-08-02 23:54:00,71.6,67.9,29.94,SE,130,0.0,0.0,88,0.00,,,0.00,VWS V14.01,2013-08-03 03:54:00,
2013-08-02 23:59:00,71.5,67.8,29.94,SE,130,0.0,0.0,88,0.00,,,0.00,VWS V14.01,2013-08-03 03:59:00,